Armada, Nebraska
Current Conditions -  °F | °C
As of 9:15 PM on Wednesday 22 Oct 2014 (Local Time) from KEAR Reporting Station
Overcast Overcast  
Wind Chill: 52°   Ceiling: 100
Heat Index: 52°   Visibility: 0mi
Dew Point: 50°   Wind: 3mph
Humidity: 94%   Direction: 50°NE
Pressure: 30.05"   Gusts: NA
Location:  40.9599°N, 99.3688°W
Report Text: KEAR 230215Z 05003KT M1/4SM OVC001 11/10 A3005 RMK AO1
Loading
Personal Weather Stations






























Interactive Weather Map
Tropical Storm Tracking
New forecast layout! Learn more

10-Day Weather Forecast

Advertisements
Track Severe Weather on mobile